Time;durP1;ratioP1;P1;durP2;ratioP2;P2;SDS_P1;SDS_P2;PMS_P1;PMS_P2;Temp;Humidity;BMP_temperature;BMP_pressure;BME280_temperature;BME280_humidity;BME280_pressure;Samples;Min_cycle;Max_cycle;Signal;HPM_P1;HPM_P2
2022/07/30 00:01:06;;;;;;;5.50;1.58;;;;;;;16.41;62.65;100230.03;4841968;29;20031;-81
2022/07/30 00:03:33;;;;;;;3.42;1.25;;;;;;;16.61;62.82;100268.88;4822568;29;20079;-80
2022/07/30 00:05:59;;;;;;;2.65;1.30;;;;;;;16.42;62.61;100247.50;4819458;29;20054;-79
2022/07/30 00:08:25;;;;;;;2.85;1.33;;;;;;;16.43;62.69;100249.22;4817952;29;20061;-81
2022/07/30 00:10:51;;;;;;;3.30;1.42;;;;;;;16.30;62.76;100234.66;4818952;29;20051;-80
2022/07/30 00:13:18;;;;;;;2.75;1.55;;;;;;;16.28;62.95;100242.59;4819368;29;20081;-80
2022/07/30 00:15:44;;;;;;;2.60;1.50;;;;;;;16.39;63.29;100261.56;4820378;29;20466;-79
2022/07/30 00:18:10;;;;;;;6.78;1.52;;;;;;;16.22;63.12;100246.22;4820093;29;20112;-81
2022/07/30 00:20:39;;;;;;;3.28;1.55;;;;;;;16.18;63.16;100252.47;4818486;29;20042;-81
2022/07/30 00:23:05;;;;;;;4.78;1.50;;;;;;;16.01;63.34;100228.38;4822139;29;20046;-80
2022/07/30 00:25:32;;;;;;;5.00;1.52;;;;;;;16.20;63.52;100282.19;4819574;29;20049;-81
2022/07/30 00:27:58;;;;;;;2.83;1.40;;;;;;;16.17;63.64;100263.00;4822111;29;20423;-79
2022/07/30 00:30:24;;;;;;;3.00;1.67;;;;;;;15.95;63.66;100239.91;4834779;29;20112;-80
2022/07/30 00:32:50;;;;;;;3.63;1.30;;;;;;;15.74;63.74;100220.25;4815471;29;20046;-81
2022/07/30 00:35:17;;;;;;;2.75;1.30;;;;;;;15.73;63.84;100223.78;4824689;29;20050;-80
2022/07/30 00:37:43;;;;;;;3.00;1.30;;;;;;;15.67;64.10;100224.75;4834201;29;20042;-81
2022/07/30 00:40:10;;;;;;;2.75;1.55;;;;;;;15.72;64.02;100232.56;4841555;29;20037;-81
2022/07/30 00:42:39;;;;;;;4.32;1.80;;;;;;;15.71;64.29;100242.16;4841879;29;20046;-81
2022/07/30 00:45:07;;;;;;;2.92;1.25;;;;;;;15.84;64.55;100278.63;4822374;29;20054;-80
2022/07/30 00:47:33;;;;;;;2.95;1.45;;;;;;;15.46;64.59;100210.41;4832328;29;20046;-79
2022/07/30 00:50:02;;;;;;;5.07;1.92;;;;;;;15.49;64.54;100240.03;4822422;29;20046;-80
2022/07/30 00:52:33;;;;;;;4.65;2.03;;;;;;;15.65;64.20;100266.78;4821039;29;20050;-81
2022/07/30 00:55:00;;;;;;;7.68;2.25;;;;;;;15.45;64.41;100248.00;4821248;29;20050;-81
2022/07/30 00:57:26;;;;;;;5.53;2.00;;;;;;;15.48;64.19;100261.91;4826152;29;20057;-81
2022/07/30 00:59:53;;;;;;;4.78;2.20;;;;;;;15.33;64.33;100249.13;4813255;29;20211;-82
2022/07/30 01:02:20;;;;;;;8.70;2.33;;;;;;;15.16;64.40;100239.88;4815157;29;20082;-80
2022/07/30 01:04:46;;;;;;;6.85;2.03;;;;;;;15.21;64.49;100247.63;4810118;29;20091;-81
2022/07/30 01:07:13;;;;;;;8.88;2.55;;;;;;;15.26;64.59;100258.00;4801596;29;20503;-82
2022/07/30 01:09:40;;;;;;;11.35;2.80;;;;;;;14.82;64.08;100210.88;4805544;29;20042;-81
2022/07/30 01:12:08;;;;;;;6.88;2.40;;;;;;;15.06;64.68;100260.16;4820863;29;20089;-81
2022/07/30 01:14:36;;;;;;;7.63;2.65;;;;;;;14.69;64.64;100212.88;4821396;29;20099;-81
2022/07/30 01:17:03;;;;;;;5.22;2.20;;;;;;;14.87;64.87;100256.19;4820356;29;20050;-81
2022/07/30 01:19:54;;;;;;;6.18;2.38;;;;;;;14.72;64.64;100249.47;4821207;29;20109;-80
2022/07/30 01:22:29;;;;;;;10.00;2.17;;;;;;;14.71;64.89;100272.19;4806215;29;20099;-81
2022/07/30 01:25:11;;;;;;;3.95;1.70;;;;;;;14.37;65.21;100240.47;4829565;29;20542;-80
2022/07/30 01:28:00;;;;;;;3.63;1.98;;;;;;;14.52;65.36;100274.25;4828751;29;20050;-81
2022/07/30 01:30:29;;;;;;;6.85;2.17;;;;;;;14.16;65.59;100222.50;4820556;29;20507;-81
2022/07/30 01:32:57;;;;;;;2.10;1.45;;;;;;;14.33;65.94;100250.13;4820795;29;20077;-81
2022/07/30 01:35:26;;;;;;;7.57;2.10;;;;;;;14.27;65.86;100258.97;4819850;29;20069;-80
2022/07/30 01:37:55;;;;;;;5.45;1.80;;;;;;;14.03;66.12;100220.97;4818753;29;20053;-80
2022/07/30 01:40:23;;;;;;;4.57;2.03;;;;;;;14.18;66.09;100251.25;4832467;29;20055;-82
2022/07/30 01:42:56;;;;;;;3.42;2.08;;;;;;;14.24;66.18;100268.59;4819641;29;20034;-80
2022/07/30 01:45:24;;;;;;;3.47;1.65;;;;;;;14.11;66.40;100260.97;4830128;29;20049;-81
2022/07/30 01:47:57;;;;;;;5.75;1.88;;;;;;;13.88;66.65;100229.06;4820497;29;20103;-81
2022/07/30 01:50:24;;;;;;;3.13;1.80;;;;;;;13.78;66.83;100221.38;4819849;29;20091;-81
2022/07/30 01:52:53;;;;;;;11.20;1.90;;;;;;;13.98;67.11;100268.13;4821384;29;20052;-82
2022/07/30 01:55:39;;;;;;;4.80;2.20;;;;;;;14.00;67.43;100276.00;4794949;29;20049;-80
2022/07/30 01:58:08;;;;;;;4.20;1.80;;;;;;;13.69;67.67;100226.75;4849880;29;20070;-81
2022/07/30 02:00:41;;;;;;;4.32;2.03;;;;;;;13.60;67.92;100213.78;4810348;29;20042;-81
2022/07/30 02:03:09;;;;;;;6.30;2.25;;;;;;;13.77;67.80;100251.03;4825036;29;20050;-82
2022/07/30 02:05:36;;;;;;;6.00;2.40;;;;;;;13.96;68.05;100290.00;4828568;29;20058;-81
2022/07/30 02:08:17;;;;;;;8.90;2.47;;;;;;;13.94;68.17;100279.53;4835454;29;20070;-82
2022/07/30 02:11:03;;;;;;;5.10;2.80;;;;;;;13.84;68.37;100265.72;4808714;29;20046;-81
2022/07/30 02:13:33;;;;;;;5.30;1.98;;;;;;;13.66;68.47;100232.00;4805115;29;20054;-80
2022/07/30 02:16:08;;;;;;;5.15;2.45;;;;;;;13.83;68.31;100261.38;4819835;29;20046;-81
2022/07/30 02:18:55;;;;;;;4.80;1.90;;;;;;;13.75;68.58;100251.94;4820698;29;20511;-79
2022/07/30 02:21:24;;;;;;;5.97;2.22;;;;;;;13.73;68.50;100246.72;4819748;29;20046;-81
2022/07/30 02:23:54;;;;;;;5.95;2.10;;;;;;;13.99;68.73;100288.19;4834168;29;20145;-80
2022/07/30 02:26:23;;;;;;;6.22;2.10;;;;;;;13.95;68.81;100269.94;4820240;29;20067;-81
2022/07/30 02:28:53;;;;;;;3.42;2.00;;;;;;;13.79;68.79;100243.16;4814734;29;20042;-79
2022/07/30 02:31:25;;;;;;;5.07;2.05;;;;;;;13.97;69.00;100274.25;4830736;29;20045;-81
2022/07/30 02:33:58;;;;;;;7.63;2.50;;;;;;;14.09;68.96;100281.06;4804959;29;20050;-81
2022/07/30 02:36:27;;;;;;;4.97;2.30;;;;;;;13.98;68.98;100254.22;4828390;29;20046;-81
2022/07/30 02:38:56;;;;;;;5.65;2.58;;;;;;;14.05;69.23;100260.19;4810365;29;20470;-80
2022/07/30 02:41:25;;;;;;;9.65;2.80;;;;;;;14.07;69.39;100259.28;4818869;29;20070;-81
2022/07/30 02:43:54;;;;;;;9.05;2.90;;;;;;;14.26;69.17;100283.41;4818617;29;20050;-78
2022/07/30 02:46:22;;;;;;;9.13;2.60;;;;;;;14.18;69.15;100264.34;4817606;29;20061;-80
2022/07/30 02:49:14;;;;;;;6.18;2.38;;;;;;;14.48;69.31;100303.13;4821198;29;20053;-80
2022/07/30 02:51:41;;;;;;;9.43;3.03;;;;;;;14.45;69.43;100286.56;4835057;29;20074;-80
2022/07/30 02:54:09;;;;;;;6.32;2.80;;;;;;;14.48;69.27;100283.03;4819186;29;20531;-80
2022/07/30 02:56:37;;;;;;;5.18;2.50;;;;;;;14.65;69.44;100298.47;4801519;29;20185;-80
2022/07/30 02:59:05;;;;;;;8.57;2.60;;;;;;;14.55;69.38;100271.59;4840896;29;20050;-81
2022/07/30 03:01:33;;;;;;;10.88;5.30;;;;;;;14.56;69.30;100260.22;4819082;29;20038;-81
2022/07/30 03:04:00;;;;;;;14.40;5.32;;;;;;;14.93;69.39;100297.97;4804586;29;20053;-81
2022/07/30 03:06:29;;;;;;;11.25;4.43;;;;;;;15.04;69.76;100303.00;4818853;29;20435;-81
2022/07/30 03:08:56;;;;;;;8.68;3.55;;;;;;;14.84;69.46;100259.72;4819705;29;20591;-82
2022/07/30 03:11:26;;;;;;;7.03;2.80;;;;;;;15.23;69.49;100305.28;4819520;29;20928;-81
2022/07/30 03:13:52;;;;;;;7.78;2.90;;;;;;;15.14;69.43;100275.75;4830428;29;20411;-81
2022/07/30 03:16:22;;;;;;;5.93;2.70;;;;;;;15.42;69.13;100306.63;4818326;29;20049;-82
2022/07/30 03:18:48;;;;;;;4.13;2.25;;;;;;;15.27;69.11;100260.63;4819937;29;20046;-80
2022/07/30 03:21:19;;;;;;;6.68;2.70;;;;;;;15.63;69.20;100309.69;4821131;29;20050;-79
2022/07/30 03:23:46;;;;;;;5.30;2.47;;;;;;;15.65;68.95;100295.63;4823811;29;20050;-80
2022/07/30 03:26:15;;;;;;;5.03;2.80;;;;;;;15.79;68.84;100299.69;4822087;29;20052;-78
2022/07/30 03:28:42;;;;;;;6.00;3.05;;;;;;;15.82;68.90;100291.75;4825015;29;20081;-81
2022/07/30 03:31:10;;;;;;;6.72;2.58;;;;;;;16.10;68.45;100301.66;4824198;29;20070;-80
2022/07/30 03:33:37;;;;;;;6.95;2.47;;;;;;;16.04;68.50;100271.19;4808083;29;20038;-80
2022/07/30 03:36:04;;;;;;;5.82;2.35;;;;;;;16.28;68.45;100287.25;4822585;29;20068;-79
2022/07/30 03:38:32;;;;;;;4.65;2.75;;;;;;;16.50;68.51;100303.31;4819130;29;20054;-81
2022/07/30 03:40:59;;;;;;;6.18;2.40;;;;;;;16.44;68.47;100265.84;4807746;29;20052;-84
2022/07/30 03:43:25;;;;;;;6.57;2.47;;;;;;;16.68;68.09;100270.44;4833868;29;20078;-79
2022/07/30 03:45:52;;;;;;;4.68;2.42;;;;;;;17.02;67.79;100294.97;4821043;29;20038;-81
2022/07/30 03:48:22;;;;;;;6.82;2.42;;;;;;;17.08;67.22;100278.16;4818172;29;20042;-80
2022/07/30 03:50:50;;;;;;;8.00;2.30;;;;;;;17.23;66.88;100279.50;4829980;29;20186;-81
2022/07/30 03:53:18;;;;;;;7.03;2.22;;;;;;;17.38;66.35;100271.16;4804072;29;20046;-80
2022/07/30 03:56:12;;;;;;;4.68;2.15;;;;;;;17.65;66.10;100279.13;4818385;29;20135;-80
2022/07/30 03:58:57;;;;;;;5.05;2.08;;;;;;;17.99;65.51;100304.41;4817546;29;20042;-81
2022/07/30 04:01:27;;;;;;;6.03;2.30;;;;;;;18.11;65.00;100287.34;4791248;29;20069;-81
2022/07/30 04:04:06;;;;;;;4.85;2.22;;;;;;;18.48;64.38;100304.59;4831018;29;20046;-81
2022/07/30 04:06:38;;;;;;;5.40;1.90;;;;;;;18.75;63.59;100314.25;4820293;29;20062;-81
2022/07/30 04:09:06;;;;;;;2.83;1.90;;;;;;;18.94;62.66;100304.75;4821116;29;20069;-80
2022/07/30 04:11:32;;;;;;;6.25;1.90;;;;;;;18.99;61.98;100277.41;4820934;29;20046;-80
2022/07/30 04:14:04;;;;;;;4.25;1.90;;;;;;;19.24;60.84;100306.38;4791874;29;20105;-79
2022/07/30 04:16:40;;;;;;;4.60;1.67;;;;;;;19.53;60.30;100313.19;4833156;29;20049;-80
2022/07/30 04:19:15;;;;;;;3.42;1.80;;;;;;;19.57;59.12;100298.97;4821848;29;20533;-80
2022/07/30 04:21:43;;;;;;;6.00;1.88;;;;;;;19.56;58.79;100273.47;4822249;29;20126;-81
2022/07/30 04:24:11;;;;;;;7.07;2.88;;;;;;;19.85;58.08;100315.53;4818177;29;20050;-81
2022/07/30 04:26:38;;;;;;;3.90;2.20;;;;;;;20.02;57.65;100320.16;4837667;29;20046;-80
2022/07/30 04:29:07;;;;;;;4.22;1.60;;;;;;;20.16;57.28;100322.25;4843773;29;20046;-79
2022/07/30 04:31:34;;;;;;;5.32;1.65;;;;;;;19.91;56.05;100261.63;4815043;29;20054;-81
2022/07/30 04:34:13;;;;;;;4.95;2.10;;;;;;;20.25;55.64;100311.31;4835093;29;20057;-79
2022/07/30 04:36:41;;;;;;;4.57;1.80;;;;;;;20.39;55.11;100308.09;4844727;29;20560;-80
2022/07/30 04:39:09;;;;;;;3.83;1.98;;;;;;;20.53;54.75;100304.84;4824582;29;20050;-79
2022/07/30 04:41:37;;;;;;;4.72;2.22;;;;;;;20.65;54.28;100297.34;4825800;29;20046;-80
2022/07/30 04:44:28;;;;;;;4.43;2.03;;;;;;;20.95;53.66;100323.41;4835416;29;20051;-80
2022/07/30 04:47:19;;;;;;;2.95;1.77;;;;;;;20.95;53.08;100299.59;4827235;29;20530;-82
2022/07/30 04:50:15;;;;;;;3.25;2.00;;;;;;;21.36;52.41;100318.03;4806232;29;20054;-79
2022/07/30 04:52:44;;;;;;;3.97;1.52;;;;;;;21.42;51.67;100324.84;4834586;29;20054;-79
2022/07/30 04:55:14;;;;;;;3.45;1.58;;;;;;;21.38;51.15;100313.53;4815375;29;20456;-79
2022/07/30 04:57:42;;;;;;;5.75;2.17;;;;;;;21.54;50.91;100324.25;4805448;29;20105;-79
2022/07/30 05:00:09;;;;;;;4.00;1.58;;;;;;;21.73;50.34;100326.94;4821687;29;20045;-79
2022/07/30 05:02:40;;;;;;;4.35;1.70;;;;;;;21.90;49.85;100319.97;4818916;29;20050;-78
2022/07/30 05:05:09;;;;;;;3.72;1.80;;;;;;;22.02;49.52;100318.53;4804552;29;20065;-79
2022/07/30 05:07:37;;;;;;;4.82;1.85;;;;;;;22.17;48.88;100317.81;4820017;29;20074;-80
2022/07/30 05:10:05;;;;;;;9.00;1.80;;;;;;;22.18;48.24;100300.94;4819655;29;20109;-78
2022/07/30 05:12:38;;;;;;;2.47;1.70;;;;;;;22.34;48.19;100321.41;4815782;29;20148;-79
2022/07/30 05:15:07;;;;;;;5.68;1.90;;;;;;;22.38;47.85;100302.63;4820227;29;20514;-78
2022/07/30 05:17:35;;;;;;;5.72;1.85;;;;;;;22.46;47.25;100310.22;4825964;29;20095;-79
2022/07/30 05:20:05;;;;;;;6.05;1.70;;;;;;;22.62;47.39;100314.75;4820672;29;20073;-79
2022/07/30 05:22:46;;;;;;;;;;;;;;;22.83;47.11;100318.06;4832829;29;20155;-79
2022/07/30 05:25:12;;;;;;;4.32;1.75;;;;;;;22.97;46.47;100317.34;4820622;29;19931;-78
2022/07/30 05:27:38;;;;;;;3.42;1.63;;;;;;;23.08;46.32;100309.66;4820279;29;20053;-77
2022/07/30 05:30:05;;;;;;;4.97;1.83;;;;;;;23.12;45.90;100307.72;4833944;29;20146;-79
2022/07/30 05:32:37;;;;;;;3.05;1.70;;;;;;;23.31;46.03;100304.94;4811086;29;20043;-78
2022/07/30 05:35:04;;;;;;;4.95;2.03;;;;;;;23.67;45.47;100308.31;4803284;29;20046;-81
2022/07/30 05:37:31;;;;;;;2.63;1.75;;;;;;;23.91;44.84;100298.13;4804329;29;20047;-80
2022/07/30 05:39:58;;;;;;;3.95;1.90;;;;;;;24.09;44.65;100306.88;4831333;29;20195;-79
2022/07/30 05:42:43;;;;;;;4.00;1.88;;;;;;;24.48;43.91;100310.84;4806258;29;21001;-79
2022/07/30 05:45:10;;;;;;;5.90;2.20;;;;;;;25.48;43.31;100310.19;4816906;29;20052;-82
2022/07/30 05:47:37;;;;;;;4.97;1.90;;;;;;;27.62;41.96;100307.38;4808876;29;20053;-78
2022/07/30 05:50:04;;;;;;;3.40;1.83;;;;;;;29.69;38.54;100284.47;4823942;29;20075;-84
2022/07/30 05:52:30;;;;;;;4.38;2.03;;;;;;;31.40;35.73;100294.28;4809231;29;20137;-81
2022/07/30 05:55:04;;;;;;;4.53;1.65;;;;;;;32.99;33.39;100292.28;4808480;29;20409;-81
2022/07/30 05:58:03;;;;;;;2.25;1.60;;;;;;;34.84;30.66;100296.47;4823850;29;20549;-78
2022/07/30 06:00:30;;;;;;;3.10;1.63;;;;;;;36.14;28.92;100286.41;4823746;29;20106;-80
2022/07/30 06:03:01;;;;;;;4.07;1.65;;;;;;;37.25;27.25;100299.44;4808610;29;20042;-83
2022/07/30 06:06:08;;;;;;;4.32;1.70;;;;;;;38.28;26.31;100275.72;4810196;29;20139;-83
2022/07/30 06:08:35;;;;;;;4.80;2.35;;;;;;;39.04;24.85;100284.78;4790027;29;20473;-78
2022/07/30 06:11:02;;;;;;;5.68;2.20;;;;;;;39.94;23.69;100290.03;4799257;29;20057;-79
2022/07/30 06:13:28;;;;;;;3.70;1.45;;;;;;;40.74;22.51;100290.66;4822893;29;20057;-81
2022/07/30 06:15:57;;;;;;;2.70;1.50;;;;;;;41.24;21.80;100292.41;4823107;29;20042;-81
2022/07/30 06:18:27;;;;;;;4.00;1.60;;;;;;;41.37;21.31;100284.28;4797891;29;20404;-82
2022/07/30 06:20:54;;;;;;;2.67;1.58;;;;;;;42.24;20.56;100277.25;4813671;29;20038;-80
2022/07/30 06:23:40;;;;;;;4.70;1.50;;;;;;;42.97;19.71;100262.63;4809044;29;20237;-80
2022/07/30 06:26:15;;;;;;;2.30;1.40;;;;;;;43.87;18.84;100290.16;4820517;29;20077;-81
2022/07/30 06:28:43;;;;;;;3.92;1.63;;;;;;;44.57;17.80;100274.63;4807884;29;20048;-82
2022/07/30 06:31:18;;;;;;;5.25;2.05;;;;;;;45.30;17.69;100272.88;4824783;29;20051;-82
2022/07/30 06:33:49;;;;;;;3.42;1.88;;;;;;;45.83;16.59;100275.94;4793799;29;20582;-79
2022/07/30 06:36:16;;;;;;;3.78;1.63;;;;;;;45.95;15.81;100275.94;4809676;29;20126;-79
2022/07/30 06:38:52;;;;;;;2.08;1.30;;;;;;;44.52;16.47;100280.75;4820072;29;20086;-82
2022/07/30 06:41:29;;;;;;;3.42;1.40;;;;;;;44.66;16.20;100286.94;4818986;29;20062;-78
2022/07/30 06:43:57;;;;;;;5.47;1.50;;;;;;;44.87;16.16;100273.84;4834414;29;20049;-81
2022/07/30 06:46:43;;;;;;;2.72;1.30;;;;;;;45.17;15.98;100267.56;4833628;29;20418;-80
2022/07/30 06:49:12;;;;;;;4.10;1.70;;;;;;;46.22;15.50;100256.28;4820629;29;20050;-80
2022/07/30 06:51:38;;;;;;;5.50;2.00;;;;;;;47.19;14.78;100285.06;4816727;29;20087;-79
2022/07/30 06:54:05;;;;;;;3.33;1.60;;;;;;;47.75;14.14;100287.19;4816126;29;20041;-82
2022/07/30 06:56:53;;;;;;;3.47;1.40;;;;;;;47.99;13.81;100286.22;4845528;29;20046;-80
2022/07/30 06:59:20;;;;;;;1.75;1.30;;;;;;;48.72;14.04;100280.66;4830498;29;20050;-79
2022/07/30 07:02:05;;;;;;;3.47;1.42;;;;;;;49.40;13.54;100276.75;4846149;29;20050;-79
2022/07/30 07:04:37;;;;;;;5.88;1.75;;;;;;;50.06;12.50;100283.97;4814853;29;20054;-79
2022/07/30 07:07:04;;;;;;;2.35;1.60;;;;;;;50.48;12.10;100290.56;4835132;29;20050;-78
2022/07/30 07:09:35;;;;;;;1.90;1.55;;;;;;;49.71;12.70;100288.91;4824827;29;20529;-79
2022/07/30 07:12:21;;;;;;;3.15;1.60;;;;;;;49.67;12.82;100287.78;4823859;29;20079;-78
2022/07/30 07:14:51;;;;;;;1.50;1.40;;;;;;;50.18;12.33;100281.03;4824009;29;20050;-80
2022/07/30 07:17:18;;;;;;;4.07;2.00;;;;;;;50.95;12.09;100285.28;4824677;29;20477;-79
2022/07/30 07:20:12;;;;;;;4.57;2.13;;;;;;;50.51;11.75;100289.25;4826565;29;20038;-80
2022/07/30 07:22:46;;;;;;;4.22;2.10;;;;;;;48.38;12.28;100269.72;4825473;29;20130;-80
2022/07/30 07:25:13;;;;;;;5.22;2.33;;;;;;;47.41;12.52;100286.28;4807066;29;20093;-78
2022/07/30 07:27:40;;;;;;;4.70;1.45;;;;;;;47.83;12.87;100271.31;4810235;29;20046;-79
2022/07/30 07:30:10;;;;;;;4.15;1.80;;;;;;;48.29;12.89;100272.03;4829361;29;20054;-79
2022/07/30 07:32:38;;;;;;;4.47;1.90;;;;;;;47.81;12.44;100264.13;4812044;29;20664;-81
2022/07/30 07:35:05;;;;;;;8.40;1.50;;;;;;;45.78;12.93;100273.06;4829611;29;20046;-78
2022/07/30 07:37:33;;;;;;;3.15;1.20;;;;;;;42.50;14.05;100270.09;4814173;29;20427;-80
2022/07/30 07:39:59;;;;;;;4.03;1.20;;;;;;;39.87;15.85;100269.00;4817889;29;20049;-80
2022/07/30 07:42:27;;;;;;;6.63;1.60;;;;;;;38.03;16.76;100269.63;4821509;29;20046;-81
2022/07/30 07:44:53;;;;;;;3.70;1.35;;;;;;;36.38;17.95;100268.47;4806878;29;20070;-79
2022/07/30 07:47:19;;;;;;;1.70;1.25;;;;;;;37.08;18.79;100270.50;4818882;29;20047;-84
2022/07/30 07:50:02;;;;;;;2.85;1.58;;;;;;;39.07;17.63;100241.72;4840130;29;20085;-83
2022/07/30 07:52:32;;;;;;;2.42;1.50;;;;;;;40.36;16.62;100252.88;4839084;29;20054;-81
2022/07/30 07:54:59;;;;;;;3.50;1.43;;;;;;;39.29;16.96;100245.34;4835121;29;20043;-81
2022/07/30 07:57:25;;;;;;;3.05;1.40;;;;;;;40.16;16.40;100253.53;4837120;29;20834;-80
2022/07/30 07:59:54;;;;;;;3.83;1.48;;;;;;;40.79;16.16;100249.19;4820139;29;20046;-81
2022/07/30 08:02:25;;;;;;;2.72;1.30;;;;;;;41.62;15.43;100248.22;4831188;29;20046;-81
2022/07/30 08:05:04;;;;;;;2.80;1.20;;;;;;;42.40;15.43;100248.69;4825979;29;20070;-79
2022/07/30 08:07:49;;;;;;;4.60;1.40;;;;;;;42.02;15.32;100249.34;4822054;29;20483;-81
2022/07/30 08:10:34;;;;;;;3.25;1.02;;;;;;;41.43;15.61;100254.44;4826938;29;20507;-81
2022/07/30 08:13:30;;;;;;;3.13;1.30;;;;;;;40.30;16.14;100238.16;4827999;29;20046;-79
2022/07/30 08:16:14;;;;;;;2.67;0.95;;;;;;;41.13;16.11;100250.19;4829883;29;20119;-77
2022/07/30 08:18:55;;;;;;;3.40;1.15;;;;;;;42.78;15.89;100228.78;4833049;29;20046;-79
2022/07/30 08:21:32;;;;;;;1.35;1.02;;;;;;;44.65;14.90;100238.63;4830979;29;20045;-81
2022/07/30 08:23:59;;;;;;;3.92;1.20;;;;;;;46.15;14.08;100226.97;4831430;29;20411;-79
2022/07/30 08:26:26;;;;;;;2.17;0.90;;;;;;;47.16;13.39;100215.84;4835922;29;20050;-80
2022/07/30 08:28:52;;;;;;;2.83;1.05;;;;;;;46.94;13.27;100227.56;4829647;29;20133;-80
2022/07/30 08:31:18;;;;;;;2.42;1.30;;;;;;;46.69;13.03;100220.44;4826657;29;20126;-80
2022/07/30 08:33:45;;;;;;;1.67;1.27;;;;;;;45.52;13.16;100243.00;4825657;29;20671;-78
2022/07/30 08:36:12;;;;;;;4.32;1.40;;;;;;;45.76;13.99;100237.59;4810258;29;20057;-79
2022/07/30 08:38:38;;;;;;;3.17;1.35;;;;;;;47.08;12.99;100235.53;4824561;29;20046;-79
2022/07/30 08:41:07;;;;;;;2.63;1.20;;;;;;;46.67;12.44;100225.38;4810873;29;20041;-79
2022/07/30 08:43:36;;;;;;;4.32;1.20;;;;;;;44.38;13.18;100231.53;4810339;29;20081;-79
2022/07/30 08:46:08;;;;;;;3.60;1.20;;;;;;;42.05;14.57;100213.38;4807994;29;20133;-80
2022/07/30 08:48:47;;;;;;;1.48;1.08;;;;;;;40.26;15.73;100223.25;4822110;29;20089;-79
2022/07/30 08:51:16;;;;;;;3.85;1.27;;;;;;;40.35;16.42;100227.53;4811618;29;20047;-78
2022/07/30 08:53:43;;;;;;;1.58;1.25;;;;;;;40.72;16.62;100223.75;4808114;29;20090;-80
2022/07/30 08:56:14;;;;;;;2.92;1.10;;;;;;;40.97;16.00;100224.06;4821711;29;20042;-78
2022/07/30 08:58:41;;;;;;;1.35;1.00;;;;;;;40.79;16.72;100220.00;4809055;29;20043;-78
2022/07/30 09:01:08;;;;;;;3.38;1.30;;;;;;;40.29;16.49;100225.59;4816064;29;20411;-79
2022/07/30 09:03:36;;;;;;;1.92;1.33;;;;;;;38.72;17.05;100212.44;4827842;29;20042;-78
2022/07/30 09:06:04;;;;;;;2.00;1.60;;;;;;;38.27;17.46;100220.53;4824170;29;20162;-80
2022/07/30 09:08:30;;;;;;;3.20;2.17;;;;;;;38.42;17.62;100217.84;4839914;29;20074;-79
2022/07/30 09:10:58;;;;;;;2.47;1.33;;;;;;;39.15;17.09;100195.38;4810281;29;20038;-78
2022/07/30 09:13:31;;;;;;;2.67;1.75;;;;;;;38.64;17.01;100217.94;4824935;29;20521;-80
2022/07/30 09:16:00;;;;;;;2.75;1.60;;;;;;;37.72;17.52;100217.09;4823373;29;20179;-78
2022/07/30 09:18:39;;;;;;;4.45;1.90;;;;;;;37.37;18.30;100212.06;4820800;29;20054;-78
2022/07/30 09:21:25;;;;;;;2.20;1.23;;;;;;;36.55;18.86;100217.84;4821999;29;20041;-79
2022/07/30 09:24:11;;;;;;;1.55;1.40;;;;;;;35.43;19.34;100213.75;4837832;29;20057;-81
2022/07/30 09:26:58;;;;;;;2.13;1.42;;;;;;;34.87;20.21;100221.50;4837867;29;20042;-80
2022/07/30 09:29:57;;;;;;;2.45;1.17;;;;;;;34.80;20.66;100210.50;4829887;29;20109;-81
2022/07/30 09:33:08;;;;;;;2.60;1.23;;;;;;;34.71;20.62;100211.44;4809221;29;20511;-80
2022/07/30 09:36:09;;;;;;;2.45;1.40;;;;;;;34.46;21.17;100220.28;4809992;29;20418;-78
2022/07/30 09:39:05;;;;;;;4.47;1.50;;;;;;;37.32;20.37;100205.50;4826127;29;20057;-79
2022/07/30 09:42:01;;;;;;;2.65;1.52;;;;;;;39.31;18.57;100213.38;4826423;29;20522;-80
2022/07/30 09:44:34;;;;;;;4.53;1.50;;;;;;;40.63;17.29;100217.59;4811435;29;20042;-83
2022/07/30 09:47:02;;;;;;;2.30;1.40;;;;;;;41.95;16.55;100198.28;4815751;29;20074;-79
2022/07/30 09:49:36;;;;;;;2.22;1.30;;;;;;;43.30;15.63;100215.09;4816460;29;20054;-83
2022/07/30 09:52:02;;;;;;;2.42;1.40;;;;;;;44.22;15.33;100180.06;4829407;29;20077;-81
2022/07/30 09:54:48;;;;;;;;;;;;;;;45.11;14.75;100214.44;4797231;29;20099;-80
2022/07/30 09:57:16;;;;;;;1.10;1.00;;;;;;;44.69;14.53;100220.66;4794098;29;19936;-79
2022/07/30 09:59:42;;;;;;;3.55;1.52;;;;;;;44.75;13.70;100210.66;4822760;29;20169;-79
2022/07/30 10:02:09;;;;;;;3.60;1.20;;;;;;;44.66;13.51;100205.50;4827975;29;20427;-79
2022/07/30 10:05:14;;;;;;;1.92;1.30;;;;;;;44.09;13.63;100192.81;4840593;29;20145;-79
2022/07/30 10:07:54;;;;;;;3.17;1.10;;;;;;;43.22;14.03;100196.22;4825497;29;20050;-80
2022/07/30 10:10:23;;;;;;;2.25;1.40;;;;;;;41.67;14.74;100203.94;4824265;29;20060;-80
2022/07/30 10:12:59;;;;;;;3.20;1.13;;;;;;;40.26;15.59;100200.63;4825343;29;20042;-77
2022/07/30 10:15:31;;;;;;;2.80;1.48;;;;;;;38.68;16.40;100193.94;4815026;29;20058;-79
2022/07/30 10:17:58;;;;;;;1.58;1.00;;;;;;;37.29;17.31;100198.56;4808364;29;20046;-77
2022/07/30 10:20:44;;;;;;;1.60;1.13;;;;;;;36.14;18.51;100213.31;4825353;29;20129;-79
2022/07/30 10:23:31;;;;;;;3.15;1.60;;;;;;;35.10;19.17;100210.97;4801418;29;20051;-80
2022/07/30 10:26:17;;;;;;;1.30;1.10;;;;;;;36.14;19.66;100192.53;4824291;29;20572;-79
2022/07/30 10:29:04;;;;;;;2.90;1.20;;;;;;;37.34;18.38;100192.59;4828099;29;20057;-79
2022/07/30 10:31:30;;;;;;;2.20;1.30;;;;;;;36.57;18.87;100205.81;4839654;29;20042;-80
2022/07/30 10:33:57;;;;;;;2.55;1.48;;;;;;;35.55;20.01;100200.78;4835539;29;20053;-80
2022/07/30 10:36:24;;;;;;;2.83;2.28;;;;;;;34.76;20.45;100212.66;4827833;29;20050;-79
2022/07/30 10:38:53;;;;;;;5.78;2.67;;;;;;;34.56;20.89;100198.56;4824801;29;20084;-78
2022/07/30 10:41:45;;;;;;;5.03;2.70;;;;;;;34.26;21.09;100203.41;4823867;29;20508;-78
2022/07/30 10:44:32;;;;;;;3.20;2.50;;;;;;;33.58;21.58;100208.41;4822589;29;20058;-78
2022/07/30 10:47:12;;;;;;;3.30;1.77;;;;;;;32.99;22.52;100211.44;4823393;29;20054;-77
2022/07/30 10:49:39;;;;;;;2.85;1.42;;;;;;;32.35;22.68;100205.03;4822495;29;20046;-80
2022/07/30 10:52:08;;;;;;;6.47;1.92;;;;;;;31.97;22.76;100207.59;4821627;29;20427;-78
2022/07/30 10:54:35;;;;;;;1.98;1.40;;;;;;;31.44;23.42;100207.00;4823533;29;20046;-80
2022/07/30 10:57:12;;;;;;;1.63;1.30;;;;;;;31.16;24.20;100205.94;4823506;29;20135;-77
2022/07/30 11:00:05;;;;;;;3.13;1.52;;;;;;;30.91;23.97;100202.72;4822753;29;20053;-77
2022/07/30 11:02:33;;;;;;;1.98;1.40;;;;;;;30.77;23.79;100195.91;4803563;29;20054;-80
2022/07/30 11:05:19;;;;;;;1.48;1.10;;;;;;;30.67;24.32;100212.00;4812475;29;20055;-77
2022/07/30 11:07:45;;;;;;;3.30;1.13;;;;;;;30.34;24.31;100200.47;4818420;29;20081;-79
2022/07/30 11:10:41;;;;;;;2.53;1.35;;;;;;;30.04;24.84;100194.94;4822280;29;20049;-80
2022/07/30 11:13:08;;;;;;;3.00;1.23;;;;;;;29.64;24.61;100210.78;4802110;29;20540;-79
2022/07/30 11:15:56;;;;;;;3.30;1.50;;;;;;;29.10;25.30;100214.19;4806987;29;20046;-82
2022/07/30 11:18:24;;;;;;;2.08;1.50;;;;;;;28.62;25.76;100201.88;4821844;29;20053;-79
2022/07/30 11:21:19;;;;;;;3.65;1.30;;;;;;;28.30;26.20;100215.94;4821907;29;20459;-80
2022/07/30 11:23:46;;;;;;;3.30;1.50;;;;;;;28.00;26.10;100208.41;4822264;29;20137;-78
2022/07/30 11:26:45;;;;;;;4.78;1.80;;;;;;;27.94;26.41;100217.75;4821686;29;20046;-79
2022/07/30 11:29:37;;;;;;;2.95;1.60;;;;;;;27.44;27.22;100204.50;4824421;29;20038;-79
2022/07/30 11:32:27;;;;;;;1.77;1.40;;;;;;;27.08;27.67;100206.19;4810019;29;20046;-78
2022/07/30 11:35:24;;;;;;;2.00;1.40;;;;;;;27.13;27.93;100215.59;4828388;29;20057;-78
2022/07/30 11:38:05;;;;;;;1.65;1.30;;;;;;;27.33;28.19;100205.28;4802344;29;20602;-79
2022/07/30 11:40:34;;;;;;;3.95;1.40;;;;;;;27.38;28.24;100205.78;4806667;29;20422;-78
2022/07/30 11:43:23;;;;;;;1.95;1.30;;;;;;;27.41;27.96;100210.91;4824801;29;20499;-80
2022/07/30 11:46:07;;;;;;;4.05;1.23;;;;;;;27.42;28.20;100204.59;4802152;29;20046;-81
2022/07/30 11:48:35;;;;;;;3.55;1.50;;;;;;;27.34;28.46;100204.31;4824484;29;20138;-78
2022/07/30 11:51:02;;;;;;;3.17;1.30;;;;;;;27.13;28.81;100198.72;4822998;29;20057;-78
2022/07/30 11:53:29;;;;;;;2.35;1.20;;;;;;;26.94;28.91;100196.50;4810572;29;20128;-79